createdAt,value
2023-05-08T00:01:04.960Z,81.01
2023-05-08T00:03:31.859Z,81.51
2023-05-08T00:05:58.613Z,81.11
2023-05-08T00:08:25.320Z,81.76
2023-05-08T00:10:51.980Z,81.54
2023-05-08T00:13:18.719Z,81.08
2023-05-08T00:15:45.570Z,80.19
2023-05-08T00:18:12.493Z,79.84
2023-05-08T00:20:39.503Z,79.65
2023-05-08T00:23:06.152Z,79.72
2023-05-08T00:25:33.143Z,79.89
2023-05-08T00:28:00.526Z,79.96
2023-05-08T00:30:27.585Z,79.08
2023-05-08T00:32:54.426Z,79.58
2023-05-08T00:35:21.794Z,78.66
2023-05-08T00:37:48.402Z,78.69
2023-05-08T00:40:15.556Z,80.26
2023-05-08T00:42:42.590Z,80.65
2023-05-08T00:45:09.793Z,79.73
2023-05-08T00:47:36.604Z,80.30
2023-05-08T00:50:03.665Z,80.97
2023-05-08T00:52:33.108Z,81.08
2023-05-08T00:55:02.291Z,81.15
2023-05-08T00:57:32.451Z,80.32
2023-05-08T01:00:01.149Z,80.72
2023-05-08T01:02:28.936Z,80.97
2023-05-08T01:04:56.551Z,79.45
2023-05-08T01:07:23.139Z,79.96
2023-05-08T01:09:50.211Z,80.36
2023-05-08T01:12:35.042Z,81.15
2023-05-08T01:15:05.055Z,80.87
2023-05-08T01:17:41.185Z,81.15
2023-05-08T01:20:15.255Z,80.88
2023-05-08T01:22:45.130Z,79.73
2023-05-08T01:25:23.463Z,80.01
2023-05-08T01:28:18.520Z,80.42
2023-05-08T01:31:00.122Z,79.65
2023-05-08T01:33:51.678Z,79.33
2023-05-08T01:36:45.715Z,79.59
2023-05-08T01:39:27.330Z,80.31
2023-05-08T01:42:11.938Z,80.60
2023-05-08T01:44:47.591Z,81.88
2023-05-08T01:47:15.931Z,81.98
2023-05-08T01:49:46.167Z,82.57
2023-05-08T01:52:28.210Z,82.45
2023-05-08T01:55:01.741Z,82.81
2023-05-08T01:57:29.953Z,82.11
2023-05-08T02:00:00.556Z,82.52
2023-05-08T02:02:30.219Z,82.36
2023-05-08T02:04:57.919Z,82.18
2023-05-08T02:07:25.958Z,81.25
2023-05-08T02:09:54.719Z,80.80
2023-05-08T02:12:23.035Z,80.80
2023-05-08T02:14:52.988Z,80.79
2023-05-08T02:17:21.140Z,81.43
2023-05-08T02:19:49.648Z,79.95
2023-05-08T02:22:18.160Z,79.43
2023-05-08T02:24:46.054Z,79.50
2023-05-08T02:27:14.200Z,79.60
2023-05-08T02:29:42.240Z,79.79
2023-05-08T02:32:10.420Z,80.48
2023-05-08T02:34:40.927Z,79.60
2023-05-08T02:37:13.610Z,79.02
2023-05-08T02:39:42.200Z,79.37
2023-05-08T02:42:08.947Z,78.69
2023-05-08T02:44:35.872Z,79.10
2023-05-08T02:47:11.606Z,78.02
2023-05-08T02:49:38.206Z,78.34
2023-05-08T02:52:28.998Z,78.76
2023-05-08T02:55:17.076Z,78.66
2023-05-08T02:57:48.420Z,78.60
2023-05-08T03:00:22.713Z,78.39
2023-05-08T03:02:57.631Z,78.95
2023-05-08T03:05:36.152Z,79.32
2023-05-08T03:08:16.074Z,78.93
2023-05-08T03:10:46.743Z,79.17
2023-05-08T03:13:16.194Z,79.70
2023-05-08T03:15:47.105Z,80.24
2023-05-08T03:18:28.606Z,79.54
2023-05-08T03:20:58.425Z,80.60
2023-05-08T03:23:28.111Z,80.55
2023-05-08T03:25:57.751Z,80.86
2023-05-08T03:28:25.456Z,80.25
2023-05-08T03:30:55.913Z,80.06
2023-05-08T03:33:24.438Z,80.52
2023-05-08T03:35:51.343Z,80.69
2023-05-08T03:38:18.638Z,80.13
2023-05-08T03:40:46.006Z,80.17
2023-05-08T03:43:13.497Z,80.68
2023-05-08T03:45:41.141Z,80.36
2023-05-08T03:48:09.541Z,80.37
2023-05-08T03:50:38.788Z,79.97
2023-05-08T03:53:09.737Z,79.68
2023-05-08T03:55:37.184Z,80.10
2023-05-08T03:58:24.504Z,80.94
2023-05-08T04:01:09.954Z,80.97
2023-05-08T04:03:52.953Z,80.41
2023-05-08T04:06:35.597Z,81.01
2023-05-08T04:09:27.125Z,80.52
2023-05-08T04:12:03.404Z,80.19
2023-05-08T04:14:55.485Z,79.43
2023-05-08T04:17:39.564Z,79.59
2023-05-08T04:20:12.213Z,79.36
2023-05-08T04:22:40.786Z,79.22
2023-05-08T04:25:09.549Z,79.28
2023-05-08T04:27:37.349Z,79.63
2023-05-08T04:30:05.003Z,79.97
2023-05-08T04:32:35.265Z,80.08
2023-05-08T04:35:03.372Z,80.58
2023-05-08T04:37:33.999Z,79.60
2023-05-08T04:40:05.006Z,79.86
2023-05-08T04:42:36.509Z,79.89
2023-05-08T04:45:04.333Z,80.50
2023-05-08T04:47:31.890Z,80.15
2023-05-08T04:50:00.063Z,80.96
2023-05-08T04:52:29.002Z,80.69
2023-05-08T04:54:55.674Z,80.23
2023-05-08T04:57:22.295Z,80.17
2023-05-08T04:59:49.233Z,80.94
2023-05-08T05:02:16.267Z,80.94
2023-05-08T05:04:43.584Z,80.87
2023-05-08T05:07:10.774Z,81.31
2023-05-08T05:09:39.200Z,81.33
2023-05-08T05:12:07.269Z,81.42
2023-05-08T05:14:35.187Z,82.55
2023-05-08T05:17:01.995Z,82.07
2023-05-08T05:19:29.497Z,82.39
2023-05-08T05:21:56.353Z,82.34
2023-05-08T05:24:23.180Z,81.70
2023-05-08T05:26:49.734Z,82.33
2023-05-08T05:29:16.937Z,82.34
2023-05-08T05:31:43.835Z,81.96
2023-05-08T05:34:10.972Z,81.32
2023-05-08T05:36:37.674Z,82.32
2023-05-08T05:39:04.835Z,83.15
2023-05-08T05:41:34.136Z,83.20
2023-05-08T05:44:01.511Z,82.16
2023-05-08T05:46:32.413Z,82.61
2023-05-08T05:49:01.385Z,82.54
2023-05-08T05:51:29.300Z,81.24
2023-05-08T05:53:57.177Z,82.83
2023-05-08T05:56:26.163Z,82.26
2023-05-08T05:58:52.875Z,82.14
2023-05-08T06:01:19.628Z,82.05
2023-05-08T06:03:46.707Z,81.59
2023-05-08T06:06:13.665Z,83.20
2023-05-08T06:08:40.319Z,82.86
2023-05-08T06:11:06.983Z,82.23
2023-05-08T06:13:34.023Z,81.07
2023-05-08T06:16:01.004Z,80.32
2023-05-08T06:18:27.846Z,80.03
2023-05-08T06:20:58.639Z,81.08
2023-05-08T06:23:26.072Z,81.84
2023-05-08T06:25:53.604Z,81.04
2023-05-08T06:28:22.466Z,81.59
2023-05-08T06:30:49.142Z,82.17
2023-05-08T06:33:15.950Z,81.90
2023-05-08T06:35:46.418Z,80.43
2023-05-08T06:38:13.828Z,78.21
2023-05-08T06:40:44.385Z,79.03
2023-05-08T06:43:12.147Z,79.43
2023-05-08T06:45:39.389Z,79.43
2023-05-08T06:48:06.848Z,79.31
2023-05-08T06:50:33.528Z,80.00
2023-05-08T06:53:00.288Z,78.99
2023-05-08T06:55:26.913Z,77.57
2023-05-08T06:57:53.586Z,78.11
2023-05-08T07:00:20.626Z,79.21
2023-05-08T07:02:47.438Z,79.48
2023-05-08T07:05:14.654Z,79.05
2023-05-08T07:07:42.698Z,77.92
2023-05-08T07:10:10.083Z,77.26
2023-05-08T07:12:36.850Z,77.98
2023-05-08T07:15:13.848Z,78.64
2023-05-08T07:17:44.836Z,78.65
2023-05-08T07:20:11.563Z,79.02
2023-05-08T07:22:38.146Z,78.31
2023-05-08T07:25:05.451Z,74.06
2023-05-08T07:27:32.543Z,73.84
2023-05-08T07:30:03.820Z,74.98
2023-05-08T07:32:31.726Z,74.50
2023-05-08T07:34:58.439Z,73.32
2023-05-08T07:37:25.430Z,73.68
2023-05-08T07:39:52.036Z,73.51
2023-05-08T07:42:18.670Z,74.63
2023-05-08T07:44:53.569Z,75.91
2023-05-08T07:47:20.879Z,75.08
2023-05-08T07:49:47.570Z,75.10
2023-05-08T07:52:14.371Z,75.73
2023-05-08T07:54:41.129Z,76.01
2023-05-08T07:57:07.922Z,75.52
2023-05-08T07:59:34.500Z,75.86
2023-05-08T08:02:01.386Z,75.62
2023-05-08T08:04:28.229Z,77.41
2023-05-08T08:06:55.271Z,77.65
2023-05-08T08:09:22.124Z,76.66
2023-05-08T08:11:48.881Z,77.94
2023-05-08T08:14:15.900Z,77.06
2023-05-08T08:16:43.025Z,75.88
2023-05-08T08:19:10.817Z,74.02
2023-05-08T08:21:43.275Z,71.62
2023-05-08T08:24:10.208Z,73.79
2023-05-08T08:26:36.967Z,74.37
2023-05-08T08:29:03.896Z,74.20
2023-05-08T08:31:30.626Z,73.21
2023-05-08T08:33:57.709Z,74.99
2023-05-08T08:36:24.324Z,71.13
2023-05-08T08:38:51.013Z,69.62
2023-05-08T08:41:17.802Z,68.81
2023-05-08T08:43:44.588Z,71.94
2023-05-08T08:46:15.781Z,70.68
2023-05-08T08:48:45.159Z,71.95
2023-05-08T08:51:17.358Z,71.04
2023-05-08T08:53:49.294Z,70.41
2023-05-08T08:56:17.243Z,67.69
2023-05-08T08:58:54.921Z,71.56
2023-05-08T09:01:24.070Z,71.00
2023-05-08T09:03:51.249Z,70.43
2023-05-08T09:06:19.626Z,71.88
2023-05-08T09:08:47.305Z,70.45
2023-05-08T09:11:14.287Z,70.28
2023-05-08T09:13:40.986Z,70.42
2023-05-08T09:16:07.838Z,67.38
2023-05-08T09:18:34.585Z,69.68
2023-05-08T09:21:01.907Z,69.47
2023-05-08T09:23:28.841Z,69.01
2023-05-08T09:25:55.532Z,70.29
2023-05-08T09:28:24.115Z,68.59
2023-05-08T09:31:00.544Z,67.54
2023-05-08T09:33:29.488Z,68.40
2023-05-08T09:35:57.195Z,68.80
2023-05-08T09:38:36.811Z,64.40
2023-05-08T09:41:15.694Z,66.95
2023-05-08T09:43:44.421Z,65.67
2023-05-08T09:46:24.367Z,63.81
2023-05-08T09:48:52.801Z,66.14
2023-05-08T09:51:21.646Z,64.27
2023-05-08T09:53:55.710Z,65.46
2023-05-08T09:56:31.993Z,65.00
2023-05-08T09:58:59.069Z,65.51
2023-05-08T10:01:28.883Z,65.05
2023-05-08T10:03:55.665Z,65.44
2023-05-08T10:06:22.435Z,66.86
2023-05-08T10:08:49.657Z,64.27
2023-05-08T10:11:22.002Z,64.81
2023-05-08T10:13:48.751Z,64.96
2023-05-08T10:16:17.491Z,68.48
2023-05-08T10:18:49.544Z,66.10
2023-05-08T10:21:17.611Z,66.45
2023-05-08T10:23:47.075Z,63.83
2023-05-08T10:26:19.129Z,62.27
2023-05-08T10:28:59.532Z,63.65
2023-05-08T10:31:28.763Z,66.44
2023-05-08T10:33:56.624Z,67.44
2023-05-08T10:36:27.405Z,68.40
2023-05-08T10:38:58.007Z,66.69
2023-05-08T10:41:26.012Z,67.17
2023-05-08T10:43:54.405Z,67.24
2023-05-08T10:46:30.140Z,64.38
2023-05-08T10:49:24.985Z,65.19
2023-05-08T10:52:16.834Z,69.72
2023-05-08T10:55:17.022Z,66.19
2023-05-08T10:58:28.453Z,63.05
2023-05-08T11:00:59.712Z,64.19
2023-05-08T11:03:33.048Z,65.51
2023-05-08T11:06:01.316Z,66.12
2023-05-08T11:08:29.829Z,65.80
2023-05-08T11:11:02.463Z,65.04
2023-05-08T11:13:33.586Z,61.89
2023-05-08T11:16:00.408Z,64.18
2023-05-08T11:18:32.477Z,60.97
2023-05-08T11:21:15.716Z,64.53
2023-05-08T11:23:42.418Z,64.83
2023-05-08T11:26:16.589Z,64.07
2023-05-08T11:28:58.939Z,65.29
2023-05-08T11:31:52.041Z,63.88
2023-05-08T11:34:46.021Z,64.03
2023-05-08T11:37:24.154Z,60.44
2023-05-08T11:39:51.169Z,61.15
2023-05-08T11:42:29.513Z,60.10
2023-05-08T11:45:09.267Z,66.10
2023-05-08T11:47:41.518Z,62.55
2023-05-08T11:50:09.838Z,60.71
2023-05-08T11:52:39.027Z,60.60
2023-05-08T11:55:08.807Z,62.84
2023-05-08T11:57:36.001Z,59.90
2023-05-08T12:00:06.441Z,60.00
2023-05-08T12:02:43.515Z,61.95
2023-05-08T12:05:11.485Z,61.88
2023-05-08T12:07:48.081Z,60.16
2023-05-08T12:10:15.819Z,59.18
2023-05-08T12:12:44.266Z,59.22
2023-05-08T12:15:13.689Z,58.59
2023-05-08T12:17:40.934Z,59.18
2023-05-08T12:20:18.291Z,58.91
2023-05-08T12:22:53.047Z,59.31
2023-05-08T12:25:20.149Z,58.10
2023-05-08T12:27:47.313Z,59.32
2023-05-08T12:30:15.166Z,61.23
2023-05-08T12:32:43.801Z,58.72
2023-05-08T12:35:14.671Z,60.00
2023-05-08T12:37:41.612Z,58.00
2023-05-08T12:40:22.541Z,58.32
2023-05-08T12:42:50.819Z,56.77
2023-05-08T12:45:22.399Z,57.93
2023-05-08T12:47:50.357Z,57.75
2023-05-08T12:50:20.974Z,56.58
2023-05-08T12:52:49.955Z,58.22
2023-05-08T12:55:29.925Z,58.64
2023-05-08T12:58:15.252Z,60.54
2023-05-08T13:00:44.890Z,57.14
2023-05-08T13:03:13.940Z,58.92
2023-05-08T13:05:45.629Z,58.11
2023-05-08T13:08:12.718Z,58.14
2023-05-08T13:10:56.398Z,58.42
2023-05-08T13:13:26.004Z,58.56
2023-05-08T13:15:54.597Z,59.15
2023-05-08T13:18:24.302Z,59.76
2023-05-08T13:20:51.016Z,60.72
2023-05-08T13:23:17.809Z,62.21
2023-05-08T13:25:44.451Z,60.04
2023-05-08T13:28:11.297Z,59.95
2023-05-08T13:30:38.400Z,60.79
2023-05-08T13:33:05.783Z,61.63
2023-05-08T13:35:33.848Z,61.29
2023-05-08T13:38:00.778Z,61.25
2023-05-08T13:40:27.960Z,60.36
2023-05-08T13:42:54.576Z,61.21
2023-05-08T13:45:21.505Z,61.77
2023-05-08T13:47:49.706Z,60.86
2023-05-08T13:50:19.401Z,64.24
2023-05-08T13:52:46.108Z,68.90
2023-05-08T13:55:14.038Z,71.88
2023-05-08T13:57:41.590Z,73.98
2023-05-08T14:00:09.575Z,73.66
2023-05-08T14:02:37.839Z,74.18
2023-05-08T14:05:08.070Z,75.80
2023-05-08T14:07:35.903Z,78.25
2023-05-08T14:10:02.779Z,78.01
2023-05-08T14:12:29.840Z,77.64
2023-05-08T14:14:56.557Z,78.26
2023-05-08T14:17:23.397Z,79.90
2023-05-08T14:19:50.063Z,79.96
2023-05-08T14:22:16.825Z,81.19
2023-05-08T14:24:44.338Z,81.62
2023-05-08T14:27:11.502Z,81.00
2023-05-08T14:29:38.151Z,81.45
2023-05-08T14:32:05.363Z,81.70
2023-05-08T14:34:32.088Z,80.39
2023-05-08T14:36:58.773Z,81.29
2023-05-08T14:39:25.530Z,83.19
2023-05-08T14:42:20.773Z,82.14
2023-05-08T14:44:42.008Z,79.74
2023-05-08T14:47:09.403Z,81.47
2023-05-08T14:49:38.437Z,80.31
2023-05-08T14:52:06.642Z,80.17
2023-05-08T14:54:33.792Z,80.91
2023-05-08T14:57:00.685Z,79.34
2023-05-08T14:59:27.531Z,78.70
2023-05-08T15:01:54.178Z,77.68
2023-05-08T15:04:21.003Z,79.17
2023-05-08T15:06:47.749Z,79.46
2023-05-08T15:09:16.339Z,79.58
2023-05-08T15:11:43.054Z,77.59
2023-05-08T15:14:10.063Z,76.83
2023-05-08T15:16:36.775Z,75.85
2023-05-08T15:19:03.664Z,76.26
2023-05-08T15:21:31.216Z,77.10
2023-05-08T15:23:57.940Z,76.54
2023-05-08T15:26:24.720Z,79.19
2023-05-08T15:28:51.515Z,78.72
2023-05-08T15:31:18.546Z,82.10
2023-05-08T15:33:45.899Z,79.55
2023-05-08T15:36:13.826Z,79.49
2023-05-08T15:38:43.885Z,78.92
2023-05-08T15:41:14.821Z,78.84
2023-05-08T15:43:45.198Z,78.27
2023-05-08T15:46:11.949Z,78.10
2023-05-08T15:48:38.694Z,79.74
2023-05-08T15:51:05.891Z,80.71
2023-05-08T15:53:33.931Z,76.15
2023-05-08T15:56:00.498Z,76.46
2023-05-08T15:58:27.682Z,78.16
2023-05-08T16:00:54.375Z,75.57
2023-05-08T16:03:21.109Z,75.99
2023-05-08T16:05:48.037Z,73.23
2023-05-08T16:08:14.774Z,73.25
2023-05-08T16:10:42.060Z,71.72
2023-05-08T16:13:09.628Z,71.33
2023-05-08T16:15:36.405Z,72.74
2023-05-08T16:18:03.353Z,72.75
2023-05-08T16:20:31.517Z,72.96
2023-05-08T16:22:59.593Z,71.09
2023-05-08T16:25:26.369Z,70.01
2023-05-08T16:27:53.153Z,71.21
2023-05-08T16:30:22.453Z,69.19
2023-05-08T16:32:49.088Z,70.46
2023-05-08T16:35:16.031Z,70.85
2023-05-08T16:37:43.389Z,67.15
2023-05-08T16:40:10.439Z,68.41
2023-05-08T16:42:37.861Z,71.88
2023-05-08T16:45:05.385Z,73.47
2023-05-08T16:47:32.745Z,75.89
2023-05-08T16:49:59.883Z,78.06
2023-05-08T16:52:26.898Z,77.75
2023-05-08T16:54:53.754Z,77.02
2023-05-08T16:57:20.634Z,76.12
2023-05-08T16:59:47.266Z,76.80
2023-05-08T17:02:18.670Z,78.45
2023-05-08T17:04:49.333Z,77.19
2023-05-08T17:07:16.933Z,78.62
2023-05-08T17:09:44.365Z,75.95
2023-05-08T17:12:11.118Z,76.54
2023-05-08T17:14:39.477Z,74.19
2023-05-08T17:17:06.948Z,72.63
2023-05-08T17:19:33.827Z,74.50
2023-05-08T17:22:00.791Z,75.45
2023-05-08T17:24:27.611Z,75.87
2023-05-08T17:26:54.325Z,75.59
2023-05-08T17:29:21.018Z,75.52
2023-05-08T17:31:47.760Z,76.46
2023-05-08T17:34:14.459Z,77.85
2023-05-08T17:36:41.229Z,79.53
2023-05-08T17:39:08.076Z,79.60
2023-05-08T17:41:34.825Z,80.28
2023-05-08T17:44:01.556Z,80.64
2023-05-08T17:46:28.285Z,80.77
2023-05-08T17:49:05.593Z,81.25
2023-05-08T17:51:34.769Z,80.75
2023-05-08T17:54:01.574Z,81.19
2023-05-08T17:58:55.589Z,81.46
2023-05-08T18:01:22.353Z,81.17
2023-05-08T18:03:49.218Z,82.20
2023-05-08T18:06:19.314Z,82.34
2023-05-08T18:08:47.279Z,81.93
2023-05-08T18:11:22.825Z,82.13
2023-05-08T18:13:50.349Z,82.31
2023-05-08T18:16:18.247Z,81.40
2023-05-08T18:18:45.581Z,81.58
2023-05-08T18:21:12.234Z,81.34
2023-05-08T18:23:39.619Z,81.61
2023-05-08T18:26:06.578Z,81.46
2023-05-08T18:28:33.550Z,81.41
2023-05-08T18:31:00.378Z,80.92
2023-05-08T18:33:27.287Z,81.29
2023-05-08T18:35:53.936Z,80.74
2023-05-08T18:38:20.667Z,80.45
2023-05-08T18:40:47.399Z,80.56
2023-05-08T18:43:14.381Z,80.50
2023-05-08T18:45:41.633Z,79.89
2023-05-08T18:48:09.596Z,80.44
2023-05-08T18:50:36.574Z,80.13
2023-05-08T18:53:03.265Z,80.02
2023-05-08T18:55:29.959Z,80.22
2023-05-08T18:57:56.723Z,79.16
2023-05-08T19:00:23.471Z,79.32
2023-05-08T19:02:50.340Z,79.15
2023-05-08T19:05:17.832Z,79.36
2023-05-08T19:07:45.455Z,79.73
2023-05-08T19:10:12.645Z,79.48
2023-05-08T19:12:39.759Z,79.52
2023-05-08T19:15:08.906Z,79.56
2023-05-08T19:17:36.925Z,79.69
2023-05-08T19:20:04.288Z,80.52
2023-05-08T19:22:33.772Z,79.92
2023-05-08T19:25:02.882Z,79.64
2023-05-08T19:27:29.426Z,80.37
2023-05-08T19:29:56.202Z,80.64
2023-05-08T19:32:23.244Z,80.82
2023-05-08T19:34:49.947Z,80.57
2023-05-08T19:37:16.593Z,80.47
2023-05-08T19:39:43.453Z,80.71
2023-05-08T19:42:11.408Z,80.77
2023-05-08T19:44:38.334Z,80.60
2023-05-08T19:47:05.505Z,80.34
2023-05-08T19:49:32.306Z,80.58
2023-05-08T19:51:58.980Z,81.14
2023-05-08T19:54:25.694Z,81.01
2023-05-08T19:56:52.360Z,80.66
2023-05-08T19:59:19.057Z,80.50
2023-05-08T20:01:45.841Z,80.40
2023-05-08T20:04:12.658Z,79.92
2023-05-08T20:06:39.328Z,79.18
2023-05-08T20:09:06.495Z,78.96
2023-05-08T20:11:33.155Z,79.85
2023-05-08T20:13:59.917Z,79.40
2023-05-08T20:16:27.086Z,80.13
2023-05-08T20:18:53.875Z,80.24
2023-05-08T20:21:20.800Z,80.42
2023-05-08T20:23:47.542Z,79.59
2023-05-08T20:26:14.430Z,79.70
2023-05-08T20:28:41.036Z,80.32
2023-05-08T20:31:08.068Z,80.82
2023-05-08T20:33:34.955Z,80.94
2023-05-08T20:36:01.616Z,80.66
2023-05-08T20:38:28.267Z,80.43
2023-05-08T20:40:58.166Z,79.08
2023-05-08T20:43:27.047Z,78.92
2023-05-08T20:45:53.850Z,79.23
2023-05-08T20:48:20.507Z,79.35
2023-05-08T20:50:48.328Z,79.86
2023-05-08T20:53:15.496Z,79.58
2023-05-08T20:55:42.082Z,80.31
2023-05-08T20:58:09.235Z,79.32
2023-05-08T21:00:36.422Z,79.81
2023-05-08T21:03:03.295Z,80.92
2023-05-08T21:05:29.988Z,81.14
2023-05-08T21:08:02.357Z,80.53
2023-05-08T21:10:31.241Z,81.05
2023-05-08T21:12:58.013Z,81.16
2023-05-08T21:15:24.803Z,80.98
2023-05-08T21:17:51.516Z,81.09
2023-05-08T21:20:18.449Z,80.63
2023-05-08T21:22:46.388Z,80.63
2023-05-08T21:25:15.185Z,79.83
2023-05-08T21:27:42.607Z,79.66
2023-05-08T21:30:14.952Z,79.71
2023-05-08T21:32:45.757Z,80.69
2023-05-08T21:35:13.419Z,79.87
2023-05-08T21:37:40.353Z,79.60
2023-05-08T21:40:08.152Z,79.56
2023-05-08T21:42:34.791Z,80.19
2023-05-08T21:45:01.666Z,79.30
2023-05-08T21:47:28.434Z,79.44
2023-05-08T21:49:55.358Z,80.06
2023-05-08T21:52:22.556Z,80.58
2023-05-08T21:54:50.136Z,80.37
2023-05-08T21:57:16.927Z,79.66
2023-05-08T21:59:43.685Z,81.25
2023-05-08T22:02:11.206Z,81.75
2023-05-08T22:04:38.185Z,82.73
2023-05-08T22:07:04.832Z,83.24
2023-05-08T22:09:31.658Z,83.64
2023-05-08T22:11:58.327Z,83.44
2023-05-08T22:14:25.084Z,82.80
2023-05-08T22:16:51.727Z,83.54
2023-05-08T22:19:18.389Z,82.52
2023-05-08T22:21:44.987Z,83.00
2023-05-08T22:24:11.776Z,83.41
2023-05-08T22:26:38.398Z,83.14
2023-05-08T22:29:05.458Z,82.72
2023-05-08T22:31:32.140Z,81.05
2023-05-08T22:33:58.891Z,81.43
2023-05-08T22:36:25.627Z,81.73
2023-05-08T22:38:52.395Z,81.92
2023-05-08T22:41:19.149Z,83.83
2023-05-08T22:43:45.863Z,86.27
2023-05-08T22:46:12.507Z,88.93
2023-05-08T22:48:39.366Z,90.38
2023-05-08T22:51:06.987Z,92.93
2023-05-08T22:53:33.673Z,93.21
2023-05-08T22:56:00.335Z,94.09
2023-05-08T22:58:29.217Z,93.46
2023-05-08T23:00:56.024Z,93.05
2023-05-08T23:03:22.783Z,92.63
2023-05-08T23:05:49.531Z,92.05
2023-05-08T23:08:16.210Z,92.67
2023-05-08T23:10:43.783Z,92.92
2023-05-08T23:13:10.758Z,91.99
2023-05-08T23:15:37.386Z,91.56
2023-05-08T23:18:04.314Z,91.05
2023-05-08T23:20:31.036Z,92.03
2023-05-08T23:22:57.680Z,90.69
2023-05-08T23:25:24.412Z,90.06
2023-05-08T23:27:51.162Z,88.68
2023-05-08T23:30:18.075Z,87.22
2023-05-08T23:32:45.384Z,86.21
2023-05-08T23:35:12.526Z,87.16
2023-05-08T23:37:39.449Z,87.17
2023-05-08T23:40:07.279Z,85.50
2023-05-08T23:42:33.971Z,85.76
2023-05-08T23:45:00.524Z,86.18
2023-05-08T23:47:27.227Z,84.74
2023-05-08T23:49:53.948Z,84.61
2023-05-08T23:52:20.916Z,83.28
2023-05-08T23:54:47.549Z,83.19
2023-05-08T23:57:14.244Z,83.94
2023-05-08T23:59:40.839Z,83.94
